createdAt,value
2018-10-11T00:00:19.868Z,39.38
2018-10-11T00:01:22.479Z,39.51
2018-10-11T00:02:25.095Z,39.35
2018-10-11T00:03:27.695Z,39.61
2018-10-11T00:04:30.303Z,39.60
2018-10-11T00:05:32.929Z,39.63
2018-10-11T00:06:35.530Z,39.11
2018-10-11T00:07:38.124Z,39.46
2018-10-11T00:08:40.751Z,39.13
2018-10-11T00:09:43.355Z,39.09
2018-10-11T00:10:45.951Z,39.54
2018-10-11T00:11:48.538Z,39.46
2018-10-11T00:12:51.119Z,39.38
2018-10-11T00:13:53.723Z,39.60
2018-10-11T00:14:56.310Z,39.27
2018-10-11T00:15:58.899Z,39.16
2018-10-11T00:17:01.508Z,39.29
2018-10-11T00:18:04.111Z,39.40
2018-10-11T00:19:06.933Z,39.32
2018-10-11T00:20:09.554Z,39.61
2018-10-11T00:21:12.143Z,39.25
2018-10-11T00:22:14.991Z,39.46
2018-10-11T00:23:17.575Z,39.08
2018-10-11T00:24:20.163Z,39.23
2018-10-11T00:25:22.789Z,39.49
2018-10-11T00:26:25.404Z,39.58
2018-10-11T00:27:28.020Z,39.60
2018-10-11T00:28:30.612Z,39.43
2018-10-11T00:29:33.302Z,39.73
2018-10-11T00:30:35.959Z,39.38
2018-10-11T00:31:38.627Z,39.09
2018-10-11T00:32:41.448Z,39.26
2018-10-11T00:33:44.050Z,39.60
2018-10-11T00:34:46.754Z,39.55
2018-10-11T00:35:49.339Z,39.42
2018-10-11T00:36:52.170Z,39.54
2018-10-11T00:37:54.762Z,39.00
2018-10-11T00:38:57.347Z,39.12
2018-10-11T00:40:00.054Z,39.50
2018-10-11T00:41:02.643Z,39.15
2018-10-11T00:42:05.316Z,39.50
2018-10-11T00:43:07.966Z,39.57
2018-10-11T00:44:14.181Z,39.19
2018-10-11T00:45:16.885Z,39.52
2018-10-11T00:46:19.491Z,39.51
2018-10-11T00:47:22.076Z,39.00
2018-10-11T00:48:24.679Z,39.55
2018-10-11T00:49:27.305Z,39.37
2018-10-11T00:50:30.003Z,39.56
2018-10-11T00:51:32.592Z,39.15
2018-10-11T00:52:35.191Z,39.50
2018-10-11T00:53:37.792Z,39.03
2018-10-11T00:54:40.391Z,39.17
2018-10-11T00:55:43.087Z,39.16
2018-10-11T00:56:45.703Z,38.98
2018-10-11T00:57:48.308Z,39.32
2018-10-11T00:58:50.912Z,39.49
2018-10-11T00:59:53.512Z,39.34
2018-10-11T01:00:56.197Z,39.48
2018-10-11T01:01:58.799Z,39.29
2018-10-11T01:03:01.396Z,39.45
2018-10-11T01:04:04.042Z,39.24
2018-10-11T01:05:06.997Z,39.07
2018-10-11T01:06:09.967Z,39.36
2018-10-11T01:07:12.573Z,39.34
2018-10-11T01:08:15.221Z,39.35
2018-10-11T01:09:17.838Z,39.22
2018-10-11T01:10:20.439Z,39.54
2018-10-11T01:11:23.155Z,38.91
2018-10-11T01:12:25.771Z,39.24
2018-10-11T01:13:28.411Z,39.03
2018-10-11T01:14:31.012Z,39.54
2018-10-11T01:15:33.756Z,39.20
2018-10-11T01:16:36.463Z,39.09
2018-10-11T01:17:39.143Z,39.07
2018-10-11T01:18:41.760Z,39.38
2018-10-11T01:19:44.358Z,39.59
2018-10-11T01:20:46.980Z,39.25
2018-10-11T01:21:49.678Z,39.48
2018-10-11T01:22:52.275Z,39.46
2018-10-11T01:23:55.172Z,39.19
2018-10-11T01:24:57.759Z,39.30
2018-10-11T01:26:00.369Z,39.04
2018-10-11T01:27:03.411Z,39.53
2018-10-11T01:28:06.199Z,39.57
2018-10-11T01:29:08.812Z,39.19
2018-10-11T01:30:11.469Z,39.57
2018-10-11T01:31:21.201Z,39.50
2018-10-11T01:32:24.233Z,39.08
2018-10-11T01:33:26.840Z,39.57
2018-10-11T01:34:29.444Z,39.05
2018-10-11T01:35:32.035Z,39.58
2018-10-11T01:36:34.639Z,39.49
2018-10-11T01:37:37.567Z,39.05
2018-10-11T01:38:40.306Z,39.51
2018-10-11T01:39:42.895Z,39.44
2018-10-11T01:40:45.655Z,39.64
2018-10-11T01:41:48.391Z,39.13
2018-10-11T01:43:01.216Z,39.33
2018-10-11T01:44:03.892Z,39.37
2018-10-11T01:45:07.024Z,39.59
2018-10-11T01:46:09.667Z,39.39
2018-10-11T01:47:12.279Z,39.15
2018-10-11T01:48:14.923Z,39.21
2018-10-11T01:49:17.608Z,39.09
2018-10-11T01:50:20.223Z,39.35
2018-10-11T01:51:22.847Z,39.33
2018-10-11T01:52:25.459Z,39.37
2018-10-11T01:53:28.049Z,39.46
2018-10-11T01:54:30.882Z,39.55
2018-10-11T01:55:33.503Z,39.56
2018-10-11T01:56:36.134Z,39.48
2018-10-11T01:57:38.736Z,39.21
2018-10-11T01:58:41.355Z,39.00
2018-10-11T01:59:43.987Z,39.40
2018-10-11T02:00:46.587Z,39.30
2018-10-11T02:01:49.172Z,39.51
2018-10-11T02:02:51.771Z,39.03
2018-10-11T02:03:54.380Z,39.47
2018-10-11T02:04:56.997Z,38.97
2018-10-11T02:05:59.607Z,39.46
2018-10-11T02:07:02.243Z,39.02
2018-10-11T02:08:05.160Z,39.46
2018-10-11T02:09:07.883Z,39.19
2018-10-11T02:10:10.506Z,39.26
2018-10-11T02:11:13.104Z,39.25
2018-10-11T02:12:15.699Z,39.33
2018-10-11T02:13:18.287Z,39.26
2018-10-11T02:14:20.872Z,38.83
2018-10-11T02:15:23.663Z,39.38
2018-10-11T02:16:26.275Z,38.94
2018-10-11T02:17:28.876Z,39.04
2018-10-11T02:18:31.485Z,39.39
2018-10-11T02:19:34.077Z,39.21
2018-10-11T02:20:36.672Z,38.86
2018-10-11T02:21:39.547Z,38.81
2018-10-11T02:22:42.134Z,39.32
2018-10-11T02:23:44.720Z,39.16
2018-10-11T02:24:47.320Z,38.94
2018-10-11T02:25:50.157Z,39.37
2018-10-11T02:26:52.747Z,38.79
2018-10-11T02:27:55.355Z,38.84
2018-10-11T02:28:57.971Z,38.73
2018-10-11T02:30:00.580Z,38.74
2018-10-11T02:31:03.207Z,38.89
2018-10-11T02:32:06.011Z,39.13
2018-10-11T02:33:08.480Z,39.16
2018-10-11T02:34:11.077Z,38.94
2018-10-11T02:35:13.691Z,38.65
2018-10-11T02:36:16.295Z,38.73
2018-10-11T02:37:18.895Z,39.21
2018-10-11T02:38:21.483Z,38.77
2018-10-11T02:39:24.063Z,38.89
2018-10-11T02:40:26.647Z,38.99
2018-10-11T02:41:29.259Z,39.16
2018-10-11T02:42:31.863Z,38.59
2018-10-11T02:43:34.468Z,38.77
2018-10-11T02:44:37.092Z,38.61
2018-10-11T02:45:39.747Z,38.94
2018-10-11T02:46:42.375Z,39.14
2018-10-11T02:47:44.989Z,38.88
2018-10-11T02:48:47.591Z,39.19
2018-10-11T02:49:50.212Z,39.18
2018-10-11T02:50:52.818Z,39.01
2018-10-11T02:51:56.179Z,39.16
2018-10-11T02:52:58.781Z,38.85
2018-10-11T02:54:01.451Z,38.83
2018-10-11T02:55:04.372Z,38.71
2018-10-11T02:56:07.129Z,39.22
2018-10-11T02:57:20.852Z,38.71
2018-10-11T02:58:34.727Z,38.97
2018-10-11T02:59:37.435Z,38.64
2018-10-11T03:00:40.115Z,38.77
2018-10-11T03:01:42.862Z,38.78
2018-10-11T03:02:46.215Z,38.76
2018-10-11T03:03:52.347Z,38.79
2018-10-11T03:04:55.067Z,38.79
2018-10-11T03:05:59.235Z,38.64
2018-10-11T03:07:02.219Z,38.82
2018-10-11T03:08:06.179Z,39.12
2018-10-11T03:09:09.199Z,39.26
2018-10-11T03:10:11.905Z,39.10
2018-10-11T03:11:14.655Z,38.68
2018-10-11T03:12:17.376Z,38.74
2018-10-11T03:13:20.029Z,39.12
2018-10-11T03:14:22.680Z,38.83
2018-10-11T03:15:25.544Z,38.76
2018-10-11T03:16:28.199Z,38.79
2018-10-11T03:17:30.819Z,38.76
2018-10-11T03:18:33.435Z,38.80
2018-10-11T03:19:36.067Z,38.80
2018-10-11T03:20:39.459Z,38.94
2018-10-11T03:21:42.104Z,39.14
2018-10-11T03:22:44.787Z,38.67
2018-10-11T03:23:47.391Z,38.68
2018-10-11T03:24:49.995Z,38.78
2018-10-11T03:25:52.631Z,38.68
2018-10-11T03:26:57.384Z,38.69
2018-10-11T03:28:00.281Z,38.77
2018-10-11T03:29:02.887Z,39.10
2018-10-11T03:30:05.552Z,39.20
2018-10-11T03:31:08.253Z,38.98
2018-10-11T03:32:10.837Z,39.32
2018-10-11T03:33:14.203Z,39.31
2018-10-11T03:34:16.802Z,39.19
2018-10-11T03:35:19.395Z,39.00
2018-10-11T03:36:22.028Z,39.00
2018-10-11T03:37:24.641Z,39.38
2018-10-11T03:38:27.294Z,39.16
2018-10-11T03:39:29.890Z,39.21
2018-10-11T03:40:32.499Z,39.17
2018-10-11T03:41:35.116Z,38.94
2018-10-11T03:42:37.720Z,39.06
2018-10-11T03:43:40.364Z,39.08
2018-10-11T03:44:42.989Z,38.93
2018-10-11T03:45:45.579Z,38.94
2018-10-11T03:46:48.171Z,39.16
2018-10-11T03:47:50.812Z,38.87
2018-10-11T03:48:53.439Z,39.34
2018-10-11T03:49:56.023Z,39.32
2018-10-11T03:50:58.703Z,38.94
2018-10-11T03:52:01.288Z,39.44
2018-10-11T03:53:03.931Z,38.87
2018-10-11T03:54:06.715Z,39.01
2018-10-11T03:55:09.331Z,39.13
2018-10-11T03:56:11.941Z,39.00
2018-10-11T03:57:14.583Z,39.07
2018-10-11T03:58:17.171Z,39.18
2018-10-11T03:59:19.973Z,39.22
2018-10-11T04:00:22.668Z,38.78
2018-10-11T04:01:25.363Z,38.83
2018-10-11T04:02:27.952Z,39.00
2018-10-11T04:03:30.591Z,38.97
2018-10-11T04:04:33.271Z,39.06
2018-10-11T04:05:35.893Z,39.07
2018-10-11T04:06:38.499Z,39.05
2018-10-11T04:07:41.125Z,39.20
2018-10-11T04:08:43.727Z,39.07
2018-10-11T04:09:46.339Z,38.72
2018-10-11T04:10:48.935Z,39.13
2018-10-11T04:11:51.526Z,39.14
2018-10-11T04:12:54.131Z,39.14
2018-10-11T04:13:56.743Z,39.19
2018-10-11T04:14:59.388Z,38.96
2018-10-11T04:16:02.007Z,38.60
2018-10-11T04:17:04.619Z,39.10
2018-10-11T04:18:07.311Z,39.14
2018-10-11T04:19:09.907Z,38.67
2018-10-11T04:20:12.559Z,38.95
2018-10-11T04:21:15.164Z,38.87
2018-10-11T04:22:17.775Z,38.97
2018-10-11T04:23:30.769Z,39.09
2018-10-11T04:24:33.360Z,39.07
2018-10-11T04:25:35.971Z,38.96
2018-10-11T04:26:38.576Z,38.86
2018-10-11T04:27:41.167Z,38.63
2018-10-11T04:28:43.767Z,39.11
2018-10-11T04:29:46.359Z,38.76
2018-10-11T04:30:48.995Z,39.03
2018-10-11T04:31:51.592Z,39.19
2018-10-11T04:32:54.599Z,38.72
2018-10-11T04:33:57.223Z,39.18
2018-10-11T04:35:00.065Z,38.96
2018-10-11T04:36:02.760Z,38.60
2018-10-11T04:37:05.428Z,39.26
2018-10-11T04:38:08.023Z,38.60
2018-10-11T04:39:10.643Z,38.65
2018-10-11T04:40:13.259Z,38.86
2018-10-11T04:41:15.872Z,39.14
2018-10-11T04:42:18.463Z,38.95
2018-10-11T04:43:21.123Z,38.99
2018-10-11T04:44:23.708Z,38.81
2018-10-11T04:45:26.314Z,38.81
2018-10-11T04:46:28.971Z,38.94
2018-10-11T04:47:31.579Z,38.76
2018-10-11T04:48:34.203Z,38.60
2018-10-11T04:49:36.807Z,39.18
2018-10-11T04:50:40.783Z,38.85
2018-10-11T04:51:43.923Z,38.96
2018-10-11T04:52:46.535Z,39.16
2018-10-11T04:53:54.719Z,39.15
2018-10-11T04:54:57.324Z,38.91
2018-10-11T04:55:59.912Z,39.16
2018-10-11T04:57:02.560Z,39.16
2018-10-11T04:58:05.159Z,38.67
2018-10-11T04:59:07.786Z,38.65
2018-10-11T05:00:10.403Z,38.58
2018-10-11T05:01:13.003Z,38.96
2018-10-11T05:02:15.689Z,39.12
2018-10-11T05:03:18.283Z,38.76
2018-10-11T05:04:20.895Z,39.12
2018-10-11T05:05:23.592Z,38.73
2018-10-11T05:06:26.207Z,39.10
2018-10-11T05:07:28.796Z,38.57
2018-10-11T05:08:31.386Z,39.07
2018-10-11T05:09:34.095Z,38.60
2018-10-11T05:10:36.747Z,39.14
2018-10-11T05:11:40.235Z,38.77
2018-10-11T05:12:42.995Z,39.08
2018-10-11T05:13:47.848Z,39.12
2018-10-11T05:14:50.896Z,38.76
2018-10-11T05:15:53.536Z,38.93
2018-10-11T05:16:56.159Z,38.76
2018-10-11T05:17:58.917Z,38.55
2018-10-11T05:19:02.707Z,38.74
2018-10-11T05:20:06.019Z,38.73
2018-10-11T05:21:08.694Z,39.04
2018-10-11T05:22:11.424Z,38.86
2018-10-11T05:23:14.492Z,38.72
2018-10-11T05:24:17.172Z,38.58
2018-10-11T05:25:19.883Z,38.88
2018-10-11T05:26:22.578Z,38.97
2018-10-11T05:27:25.307Z,39.00
2018-10-11T05:28:28.346Z,39.01
2018-10-11T05:29:30.987Z,38.56
2018-10-11T05:30:33.737Z,38.69
2018-10-11T05:31:36.722Z,38.52
2018-10-11T05:32:39.533Z,38.61
2018-10-11T05:33:43.392Z,38.69
2018-10-11T05:34:46.068Z,38.71
2018-10-11T05:35:48.738Z,38.66
2018-10-11T05:36:51.388Z,39.10
2018-10-11T05:37:54.050Z,38.45
2018-10-11T05:38:57.074Z,38.87
2018-10-11T05:39:59.810Z,38.95
2018-10-11T05:41:02.535Z,38.84
2018-10-11T05:42:05.274Z,38.44
2018-10-11T05:43:08.066Z,38.82
2018-10-11T05:44:11.154Z,38.81
2018-10-11T05:45:19.307Z,38.67
2018-10-11T05:46:26.230Z,38.42
2018-10-11T05:47:29.002Z,38.93
2018-10-11T05:48:32.726Z,38.48
2018-10-11T05:49:35.840Z,38.41
2018-10-11T05:50:39.104Z,38.94
2018-10-11T05:51:41.922Z,38.83
2018-10-11T05:52:45.490Z,38.36
2018-10-11T05:53:48.266Z,38.88
2018-10-11T05:54:51.320Z,38.64
2018-10-11T05:55:54.308Z,38.78
2018-10-11T05:56:57.059Z,38.74
2018-10-11T05:58:00.086Z,38.40
2018-10-11T05:59:03.338Z,38.80
2018-10-11T06:00:06.894Z,38.46
2018-10-11T06:01:11.918Z,39.00
2018-10-11T06:02:14.968Z,38.54
2018-10-11T06:03:17.710Z,38.82
2018-10-11T06:04:20.558Z,38.70
2018-10-11T06:05:23.454Z,39.01
2018-10-11T06:06:26.171Z,38.62
2018-10-11T06:07:28.966Z,39.09
2018-10-11T06:08:31.717Z,38.69
2018-10-11T06:09:34.506Z,38.72
2018-10-11T06:10:39.382Z,38.93
2018-10-11T06:11:42.242Z,38.93
2018-10-11T06:12:45.027Z,39.21
2018-10-11T06:13:48.622Z,39.29
2018-10-11T06:14:51.457Z,39.11
2018-10-11T06:15:54.242Z,39.25
2018-10-11T06:16:56.903Z,39.25
2018-10-11T06:17:59.664Z,39.21
2018-10-11T06:19:02.438Z,38.78
2018-10-11T06:20:05.262Z,39.25
2018-10-11T06:21:08.390Z,38.72
2018-10-11T06:22:11.122Z,38.78
2018-10-11T06:23:13.794Z,39.28
2018-10-11T06:24:16.474Z,39.12
2018-10-11T06:25:19.171Z,39.28
2018-10-11T06:26:21.862Z,38.93
2018-10-11T06:27:24.612Z,39.10
2018-10-11T06:28:27.387Z,39.23
2018-10-11T06:29:30.187Z,38.85
2018-10-11T06:30:33.810Z,39.25
2018-10-11T06:31:36.977Z,39.26
2018-10-11T06:32:39.761Z,38.79
2018-10-11T06:33:43.828Z,38.94
2018-10-11T06:34:46.558Z,39.03
2018-10-11T06:35:49.451Z,38.83
2018-10-11T06:36:52.614Z,38.79
2018-10-11T06:37:55.415Z,39.38
2018-10-11T06:38:58.894Z,38.82
2018-10-11T06:40:01.672Z,38.95
2018-10-11T06:41:04.407Z,39.42
2018-10-11T06:42:07.416Z,38.86
2018-10-11T06:43:10.126Z,39.38
2018-10-11T06:44:12.923Z,38.91
2018-10-11T06:45:16.046Z,38.97
2018-10-11T06:46:18.842Z,39.17
2018-10-11T06:47:22.070Z,39.18
2018-10-11T06:48:24.871Z,38.88
2018-10-11T06:49:27.606Z,39.12
2018-10-11T06:50:30.444Z,39.53
2018-10-11T06:51:33.306Z,39.03
2018-10-11T06:52:36.334Z,39.31
2018-10-11T06:53:39.283Z,39.58
2018-10-11T06:54:42.418Z,39.46
2018-10-11T06:55:45.067Z,39.10
2018-10-11T06:56:47.749Z,39.71
2018-10-11T06:57:50.798Z,39.28
2018-10-11T06:58:53.466Z,39.32
2018-10-11T06:59:56.124Z,39.72
2018-10-11T07:00:58.794Z,39.51
2018-10-11T07:02:01.608Z,39.73
2018-10-11T07:03:04.531Z,39.63
2018-10-11T07:04:07.246Z,39.43
2018-10-11T07:05:09.883Z,39.27
2018-10-11T07:06:12.591Z,39.84
2018-10-11T07:07:15.428Z,39.85
2018-10-11T07:08:18.414Z,39.46
2018-10-11T07:09:21.116Z,39.41
2018-10-11T07:10:23.895Z,39.41
2018-10-11T07:11:26.542Z,39.60
2018-10-11T07:12:29.190Z,39.99
2018-10-11T07:13:32.214Z,39.68
2018-10-11T07:14:34.919Z,39.88
2018-10-11T07:15:37.558Z,39.54
2018-10-11T07:16:40.208Z,39.96
2018-10-11T07:17:42.861Z,39.75
2018-10-11T07:18:45.822Z,40.06
2018-10-11T07:19:48.465Z,39.64
2018-10-11T07:20:51.123Z,39.87
2018-10-11T07:21:53.792Z,40.20
2018-10-11T07:22:56.443Z,39.77
2018-10-11T07:23:59.470Z,40.19
2018-10-11T07:25:02.130Z,40.24
2018-10-11T07:26:04.859Z,40.10
2018-10-11T07:27:07.590Z,40.37
2018-10-11T07:28:10.246Z,39.79
2018-10-11T07:29:13.251Z,40.00
2018-10-11T07:30:15.898Z,40.39
2018-10-11T07:31:18.547Z,40.20
2018-10-11T07:32:21.190Z,39.84
2018-10-11T07:33:24.255Z,39.88
2018-10-11T07:34:27.327Z,39.95
2018-10-11T07:35:30.258Z,39.97
2018-10-11T07:36:32.926Z,40.17
2018-10-11T07:37:35.572Z,40.03
2018-10-11T07:38:38.218Z,40.30
2018-10-11T07:39:41.166Z,40.16
2018-10-11T07:40:43.928Z,39.93
2018-10-11T07:41:46.494Z,40.44
2018-10-11T07:42:49.146Z,39.96
2018-10-11T07:43:51.794Z,40.47
2018-10-11T07:44:54.594Z,40.33
2018-10-11T07:45:57.235Z,40.11
2018-10-11T07:46:59.885Z,39.92
2018-10-11T07:48:02.554Z,40.31
2018-10-11T07:49:06.226Z,40.09
2018-10-11T07:50:09.006Z,39.91
2018-10-11T07:51:11.653Z,40.26
2018-10-11T07:52:14.293Z,40.46
2018-10-11T07:53:16.945Z,40.27
2018-10-11T07:54:19.590Z,40.14
2018-10-11T07:55:22.386Z,40.53
2018-10-11T07:56:25.054Z,39.93
2018-10-11T07:57:27.694Z,40.52
2018-10-11T07:58:30.338Z,40.44
2018-10-11T07:59:32.986Z,40.52
2018-10-11T08:00:35.717Z,40.54
2018-10-11T08:01:38.436Z,40.31
2018-10-11T08:02:41.922Z,40.15
2018-10-11T08:03:44.582Z,40.68
2018-10-11T08:04:47.230Z,40.53
2018-10-11T08:05:49.931Z,40.20
2018-10-11T08:06:52.907Z,40.24
2018-10-11T08:07:55.587Z,40.64
2018-10-11T08:08:58.257Z,40.50
2018-10-11T08:10:00.946Z,40.32
2018-10-11T08:11:03.875Z,40.97
2018-10-11T08:12:06.677Z,40.53
2018-10-11T08:13:09.262Z,40.40
2018-10-11T08:14:12.158Z,40.85
2018-10-11T08:15:14.818Z,40.94
2018-10-11T08:16:17.595Z,40.97
2018-10-11T08:17:20.686Z,40.61
2018-10-11T08:18:22.991Z,40.91
2018-10-11T08:19:25.799Z,40.72
2018-10-11T08:20:28.400Z,40.53
2018-10-11T08:21:31.073Z,40.75
2018-10-11T08:22:33.782Z,40.88
2018-10-11T08:23:36.449Z,41.01
2018-10-11T08:24:39.154Z,41.07
2018-10-11T08:25:42.353Z,40.54
2018-10-11T08:26:44.640Z,40.55
2018-10-11T08:27:47.266Z,40.95
2018-10-11T08:28:49.910Z,41.08
2018-10-11T08:29:52.558Z,40.82
2018-10-11T08:30:55.199Z,40.52
2018-10-11T08:31:57.909Z,40.52
2018-10-11T08:33:00.583Z,40.78
2018-10-11T08:34:03.235Z,41.12
2018-10-11T08:35:05.915Z,41.08
2018-10-11T08:36:08.782Z,41.05
2018-10-11T08:37:11.482Z,40.84
2018-10-11T08:38:14.401Z,40.92
2018-10-11T08:39:16.816Z,40.65
2018-10-11T08:40:19.519Z,40.88
2018-10-11T08:41:22.167Z,40.67
2018-10-11T08:42:24.862Z,40.85
2018-10-11T08:43:27.583Z,40.99
2018-10-11T08:44:30.199Z,41.28
2018-10-11T08:45:32.838Z,40.79
2018-10-11T08:46:35.486Z,40.78
2018-10-11T08:47:38.222Z,40.82
2018-10-11T08:48:40.874Z,41.31
2018-10-11T08:49:43.511Z,41.53
2018-10-11T08:50:46.180Z,41.26
2018-10-11T08:51:48.868Z,41.27
2018-10-11T08:52:51.554Z,41.35
2018-10-11T08:53:54.284Z,41.52
2018-10-11T08:54:56.979Z,41.36
2018-10-11T08:55:59.640Z,41.45
2018-10-11T08:57:02.406Z,41.66
2018-10-11T08:58:05.286Z,41.69
2018-10-11T08:59:07.973Z,41.10
2018-10-11T09:00:10.650Z,41.12
2018-10-11T09:01:13.282Z,41.44
2018-10-11T09:02:15.926Z,41.34
2018-10-11T09:03:18.712Z,41.36
2018-10-11T09:04:21.320Z,41.26
2018-10-11T09:05:23.986Z,41.67
2018-10-11T09:06:26.638Z,41.31
2018-10-11T09:07:29.321Z,41.62
2018-10-11T09:08:32.014Z,41.76
2018-10-11T09:09:34.689Z,41.73
2018-10-11T09:10:38.516Z,41.64
2018-10-11T09:11:40.093Z,41.39
2018-10-11T09:12:42.768Z,41.42
2018-10-11T09:13:45.502Z,41.43
2018-10-11T09:14:48.150Z,41.66
2018-10-11T09:15:50.799Z,41.77
2018-10-11T09:16:53.587Z,41.68
2018-10-11T09:17:56.271Z,41.81
2018-10-11T09:18:58.974Z,41.63
2018-10-11T09:20:01.646Z,41.42
2018-10-11T09:21:04.330Z,41.43
2018-10-11T09:22:07.019Z,41.21
2018-10-11T09:23:09.686Z,41.52
2018-10-11T09:24:12.391Z,41.23
2018-10-11T09:25:15.055Z,41.33
2018-10-11T09:26:17.710Z,41.78
2018-10-11T09:27:20.424Z,41.32
2018-10-11T09:28:23.044Z,41.45
2018-10-11T09:29:25.738Z,41.91
2018-10-11T09:30:28.440Z,41.48
2018-10-11T09:31:31.087Z,41.80
2018-10-11T09:32:33.750Z,41.55
2018-10-11T09:33:36.403Z,41.56
2018-10-11T09:34:39.124Z,41.92
2018-10-11T09:35:41.786Z,41.92
2018-10-11T09:36:44.436Z,42.01
2018-10-11T09:37:47.121Z,42.04
2018-10-11T09:38:50.750Z,41.89
2018-10-11T09:39:53.714Z,41.60
2018-10-11T09:40:56.358Z,41.90
2018-10-11T09:41:58.993Z,42.01
2018-10-11T09:43:01.701Z,41.90
2018-10-11T09:44:04.365Z,42.13
2018-10-11T09:45:07.605Z,42.00
2018-10-11T09:46:10.278Z,41.92
2018-10-11T09:47:12.918Z,42.24
2018-10-11T09:48:15.573Z,41.79
2018-10-11T09:49:18.220Z,42.00
2018-10-11T09:50:20.879Z,42.33
2018-10-11T09:51:23.530Z,42.16
2018-10-11T09:52:26.178Z,41.97
2018-10-11T09:53:28.871Z,42.10
2018-10-11T09:54:31.649Z,42.03
2018-10-11T09:55:34.326Z,42.23
2018-10-11T09:57:48.179Z,42.33
2018-10-11T09:58:50.859Z,42.45
2018-10-11T09:59:53.586Z,42.30
2018-10-11T10:01:01.790Z,42.58
2018-10-11T10:02:04.613Z,42.12
2018-10-11T10:03:07.272Z,42.64
2018-10-11T10:04:09.914Z,42.38
2018-10-11T10:05:12.607Z,42.58
2018-10-11T10:06:15.254Z,42.46
2018-10-11T10:07:17.927Z,42.73
2018-10-11T10:08:20.594Z,42.63
2018-10-11T10:09:23.246Z,42.84
2018-10-11T10:10:25.943Z,42.69
2018-10-11T10:11:28.794Z,42.64
2018-10-11T10:12:31.446Z,42.69
2018-10-11T10:13:34.082Z,42.92
2018-10-11T10:14:36.734Z,42.42
2018-10-11T10:15:39.453Z,42.78
2018-10-11T10:16:42.116Z,42.96
2018-10-11T10:17:44.779Z,42.99
2018-10-11T10:18:47.422Z,42.83
2018-10-11T10:19:50.071Z,42.84
2018-10-11T10:20:52.711Z,43.15
2018-10-11T10:21:55.554Z,43.03
2018-10-11T10:22:58.224Z,42.77
2018-10-11T10:24:00.886Z,43.13
2018-10-11T10:25:03.642Z,42.96
2018-10-11T10:26:06.290Z,42.80
2018-10-11T10:27:09.169Z,43.04
2018-10-11T10:28:11.734Z,43.46
2018-10-11T10:29:14.370Z,43.07
2018-10-11T10:30:22.582Z,43.44
2018-10-11T10:31:25.218Z,43.12
2018-10-11T10:32:27.866Z,43.80
2018-10-11T10:33:30.522Z,43.46
2018-10-11T10:34:33.186Z,43.50
2018-10-11T10:35:35.834Z,43.66
2018-10-11T10:36:38.494Z,43.97
2018-10-11T10:37:41.218Z,43.96
2018-10-11T10:38:43.858Z,43.92
2018-10-11T10:39:46.543Z,43.96
2018-10-11T10:40:49.210Z,44.07
2018-10-11T10:41:52.130Z,43.97
2018-10-11T10:42:55.090Z,44.23
2018-10-11T10:43:57.742Z,44.33
2018-10-11T10:45:00.375Z,44.60
2018-10-11T10:46:03.050Z,44.54
2018-10-11T10:47:05.702Z,44.30
2018-10-11T10:48:08.847Z,44.29
2018-10-11T10:49:11.526Z,44.44
2018-10-11T10:50:14.170Z,44.37
2018-10-11T10:51:16.811Z,44.44
2018-10-11T10:52:19.471Z,45.00
2018-10-11T10:53:22.491Z,44.84
2018-10-11T10:54:31.326Z,44.64
2018-10-11T10:55:33.974Z,44.55
2018-10-11T10:56:36.826Z,44.62
2018-10-11T10:57:39.470Z,45.10
2018-10-11T10:58:42.231Z,44.71
2018-10-11T10:59:44.916Z,44.64
2018-10-11T11:00:47.559Z,45.11
2018-10-11T11:01:50.215Z,44.94
2018-10-11T11:02:52.853Z,44.84
2018-10-11T11:03:55.830Z,45.19
2018-10-11T11:04:58.498Z,45.05
2018-10-11T11:06:01.150Z,44.87
2018-10-11T11:07:03.854Z,45.27
2018-10-11T11:08:06.519Z,44.87
2018-10-11T11:09:10.894Z,45.33
2018-10-11T11:10:13.547Z,44.80
2018-10-11T11:11:16.486Z,44.84
2018-10-11T11:12:19.142Z,44.80
2018-10-11T11:13:22.128Z,45.31
2018-10-11T11:14:24.554Z,44.83
2018-10-11T11:15:27.186Z,45.35
2018-10-11T11:16:29.828Z,44.87
2018-10-11T11:17:32.474Z,45.43
2018-10-11T11:18:35.135Z,45.46
2018-10-11T11:19:38.069Z,45.31
2018-10-11T11:20:40.718Z,44.96
2018-10-11T11:21:43.366Z,44.91
2018-10-11T11:22:46.007Z,45.11
2018-10-11T11:23:48.687Z,44.80
2018-10-11T11:24:51.668Z,45.02
2018-10-11T11:25:54.317Z,44.71
2018-10-11T11:26:56.958Z,44.84
2018-10-11T11:27:59.614Z,44.81
2018-10-11T11:29:02.315Z,45.24
2018-10-11T11:30:05.418Z,44.99
2018-10-11T11:31:08.130Z,44.95
2018-10-11T11:32:10.738Z,45.23
2018-10-11T11:33:13.495Z,45.32
2018-10-11T11:34:16.130Z,45.42
2018-10-11T11:35:19.090Z,45.63
2018-10-11T11:36:21.784Z,45.51
2018-10-11T11:37:24.424Z,45.29
2018-10-11T11:38:27.058Z,45.06
2018-10-11T11:39:29.710Z,45.19
2018-10-11T11:40:32.434Z,45.52
2018-10-11T11:41:35.117Z,45.12
2018-10-11T11:42:37.750Z,45.71
2018-10-11T11:43:40.700Z,45.74
2018-10-11T11:44:43.370Z,45.40
2018-10-11T11:45:46.078Z,45.36
2018-10-11T11:46:48.742Z,45.32
2018-10-11T11:47:51.411Z,46.12
2018-10-11T11:48:54.055Z,45.88
2018-10-11T11:49:56.694Z,45.76
2018-10-11T11:50:59.426Z,45.61
2018-10-11T11:52:02.061Z,45.91
2018-10-11T11:53:04.751Z,45.87
2018-10-11T11:54:12.890Z,45.75
2018-10-11T11:55:15.523Z,45.47
2018-10-11T11:56:18.222Z,45.63
2018-10-11T11:57:20.874Z,45.90
2018-10-11T11:58:23.519Z,45.99
2018-10-11T11:59:26.170Z,46.01
2018-10-11T12:00:28.818Z,45.59
2018-10-11T12:01:31.482Z,45.68
2018-10-11T12:02:34.361Z,45.76
2018-10-11T12:03:37.363Z,45.95
2018-10-11T12:04:40.033Z,46.22
2018-10-11T12:05:42.686Z,46.23
2018-10-11T12:06:45.399Z,46.24
2018-10-11T12:07:48.026Z,46.25
2018-10-11T12:08:50.666Z,46.23
2018-10-11T12:09:53.320Z,45.92
2018-10-11T12:10:56.026Z,45.89
2018-10-11T12:11:58.751Z,45.98
2018-10-11T12:13:03.548Z,45.86
2018-10-11T12:14:07.117Z,46.35
2018-10-11T12:15:09.781Z,45.82
2018-10-11T12:16:12.438Z,45.92
2018-10-11T12:17:15.130Z,45.94
2018-10-11T12:18:17.915Z,46.22
2018-10-11T12:19:20.567Z,46.02
2018-10-11T12:20:24.965Z,46.30
2018-10-11T12:21:27.784Z,46.35
2018-10-11T12:22:30.550Z,46.11
2018-10-11T12:23:33.214Z,46.74
2018-10-11T12:24:35.851Z,46.77
2018-10-11T12:25:38.691Z,46.77
2018-10-11T12:26:41.361Z,46.20
2018-10-11T12:27:44.104Z,46.73
2018-10-11T12:28:46.751Z,46.56
2018-10-11T12:29:49.401Z,46.62
2018-10-11T12:30:52.104Z,46.34
2018-10-11T12:31:54.746Z,46.68
2018-10-11T12:32:57.458Z,46.31
2018-10-11T12:34:00.204Z,46.81
2018-10-11T12:35:03.094Z,46.95
2018-10-11T12:36:05.888Z,46.51
2018-10-11T12:37:08.547Z,46.80
2018-10-11T12:38:11.378Z,46.50
2018-10-11T12:39:14.052Z,46.46
2018-10-11T12:40:16.959Z,47.07
2018-10-11T12:41:19.646Z,47.04
2018-10-11T12:42:22.373Z,46.97
2018-10-11T12:43:24.990Z,47.01
2018-10-11T12:44:27.666Z,46.88
2018-10-11T12:45:30.307Z,46.67
2018-10-11T12:46:34.328Z,46.69
2018-10-11T12:47:35.910Z,46.61
2018-10-11T12:48:38.642Z,47.17
2018-10-11T12:49:44.222Z,47.09
2018-10-11T12:50:44.042Z,46.99
2018-10-11T12:51:46.732Z,47.26
2018-10-11T12:52:49.412Z,46.80
2018-10-11T12:53:52.200Z,47.25
2018-10-11T12:54:55.008Z,46.78
2018-10-11T12:55:58.235Z,46.70
2018-10-11T12:57:00.980Z,47.11
2018-10-11T12:58:03.597Z,47.13
2018-10-11T12:59:06.426Z,46.76
2018-10-11T13:00:11.895Z,46.73
2018-10-11T13:01:17.271Z,46.97
2018-10-11T13:02:17.290Z,46.96
2018-10-11T13:03:19.980Z,47.36
2018-10-11T13:04:22.702Z,47.04
2018-10-11T13:05:25.361Z,46.86
2018-10-11T13:06:28.033Z,46.94
2018-10-11T13:07:31.013Z,47.11
2018-10-11T13:08:33.681Z,46.92
2018-10-11T13:09:36.411Z,47.19
2018-10-11T13:10:39.067Z,46.79
2018-10-11T13:11:41.803Z,47.13
2018-10-11T13:12:44.531Z,47.35
2018-10-11T13:13:51.172Z,47.23
2018-10-11T13:14:49.961Z,46.71
2018-10-11T13:15:52.926Z,47.29
2018-10-11T13:16:55.597Z,47.22
2018-10-11T13:17:58.267Z,47.33
2018-10-11T13:19:00.926Z,47.11
2018-10-11T13:20:04.398Z,47.20
2018-10-11T13:21:07.057Z,46.81
2018-10-11T13:22:09.735Z,47.28
2018-10-11T13:23:15.756Z,47.38
2018-10-11T13:24:15.112Z,47.15
2018-10-11T13:25:17.760Z,47.18
2018-10-11T13:26:20.426Z,46.95
2018-10-11T13:27:23.095Z,47.08
2018-10-11T13:28:25.743Z,46.75
2018-10-11T13:29:28.495Z,47.21
2018-10-11T13:30:31.209Z,47.47